Airfield :







YOU CAN JOIN US ON...

 
LOGIN :

Register | Disclaimer

   EN    FR    IT 

 









Legend :    VFR   Marginal VFR   IFR   Intensive IFR   Very Intensive IFR
Visi :
Ceiling :
>= 8 km
>= 3000ft
5 to 8 km
1000 to 3000 ft
1500m to 5 km
500 to 1000 ft
800 to 1500m
200 to 500 ft
< 800m
< 200 ft
Symbols :   Thunderstorms  Fog  Heavy snow  Heavy precipitations  Wind > 20 kt






- Airport Elevation : 270 ft
- IATA code : YMX


CYMX - Montreal International Mirabel

CURRENT METAR :
  • 200504Z 05004KT 360V100 3SM -RA BR OVC006 08/08 A3016 RMK SF8 SLP216

EXPIRED METARs :
  • 200400Z 05003KT 010V100 2SM -RA BR BKN003 OVC017 08/07 A3018 RMK SF7SC1 SLP225
  • 200343Z 06002KT 2 1/2SM -RA BR BKN003 OVC017 08/07 A3019 RMK SF6SC2 SLP228
  • 200335Z VRB02KT 2 1/2SM -RA BR SCT003 OVC017 08/07 A3019 RMK SF4SC4 SLP228
  • 200300Z 00000KT 10SM -RA FEW004 OVC022 08/07 A3021 RMK SF2SC6 SLP234

TAF AMD TAF CYMX
Valid from the 20 at 04:00 until the 21 at 00:00 UTC


200408Z 2004/2024 05005KT 2SM -RA BR OVC003
TEMPO 2004/2012 6SM -RA BR SCT003 OVC012
FM201200 VRB03KT 4SM -RA BR OVC006
TEMPO 2012/2015 6SM -RA BR SCT006 OVC015
FM201500 28008KT P6SM BKN025
FM202000 30005KT P6SM FEW020 RMK NXT FCST BY 200600Z
CZUL FIR / North America



MET'MAP, your aeronautical weather chart ! - Copyright ORBIFLY December 2007 - Disclaimer

ORBIFLY MET'MAP TEAM :

Programming & Development : Alexandra Zaïnal
Concept & original design : Baudouin d'Aumeries
Assistance for programming : Marc-Olivier Méhu
Technical & hardware support : Manuel Goepfert

Contact : metmap@orbifly.com




SOURCES & CREDITS :

   NOAA